createdAt,value
2022-10-01T00:01:06.000Z,3.50
2022-10-01T00:11:06.000Z,4.10
2022-10-01T00:21:06.000Z,2.80
2022-10-01T00:31:06.000Z,3.20
2022-10-01T00:41:06.000Z,4.10
2022-10-01T01:01:06.000Z,3.30
2022-10-01T01:11:06.000Z,2.80
2022-10-01T01:21:05.000Z,1.70
2022-10-01T01:31:05.000Z,2.00
2022-10-01T01:41:05.000Z,2.40
2022-10-01T01:51:05.000Z,2.70
2022-10-01T02:01:05.000Z,1.90
2022-10-01T02:11:05.000Z,2.80
2022-10-01T02:31:04.000Z,2.10
2022-10-01T02:41:04.000Z,2.20
2022-10-01T02:51:04.000Z,2.20
2022-10-01T03:01:04.000Z,2.20
2022-10-01T03:11:04.000Z,2.10
2022-10-01T03:21:04.000Z,2.10
2022-10-01T03:31:04.000Z,2.30
2022-10-01T03:41:04.000Z,1.90
2022-10-01T04:01:03.000Z,2.00
2022-10-01T04:11:03.000Z,1.90
2022-10-01T04:21:03.000Z,2.40
2022-10-01T04:31:03.000Z,2.70
2022-10-01T04:41:03.000Z,3.20
2022-10-01T04:51:03.000Z,3.30
2022-10-01T05:01:02.000Z,3.70
2022-10-01T05:11:02.000Z,3.00
2022-10-01T05:31:02.000Z,3.20
2022-10-01T05:41:02.000Z,4.20
2022-10-01T05:51:02.000Z,3.10
2022-10-01T06:01:02.000Z,2.30
2022-10-01T06:11:01.000Z,3.00
2022-10-01T06:21:01.000Z,1.30
2022-10-01T06:31:01.000Z,2.10
2022-10-01T06:41:01.000Z,3.50
2022-10-01T07:01:01.000Z,1.50
2022-10-01T07:11:01.000Z,2.80
2022-10-01T07:21:01.000Z,3.30
2022-10-01T07:31:00.000Z,3.20
2022-10-01T07:41:00.000Z,3.10
2022-10-01T07:51:00.000Z,2.30
2022-10-01T08:01:00.000Z,3.50
2022-10-01T08:11:00.000Z,2.60
2022-10-01T08:31:00.000Z,3.00
2022-10-01T08:40:59.000Z,2.40
2022-10-01T08:50:59.000Z,2.10
2022-10-01T09:00:59.000Z,3.60
2022-10-01T09:10:59.000Z,2.40
2022-10-01T09:20:59.000Z,2.40
2022-10-01T09:30:59.000Z,2.20
2022-10-01T09:40:59.000Z,1.50
2022-10-01T10:00:58.000Z,1.20
2022-10-01T10:10:58.000Z,1.40
2022-10-01T10:20:58.000Z,1.20
2022-10-01T10:30:58.000Z,1.20
2022-10-01T10:40:58.000Z,0.70
2022-10-01T10:50:58.000Z,0.80
2022-10-01T11:00:58.000Z,1.10
2022-10-01T11:10:57.000Z,0.80
2022-10-01T11:30:57.000Z,0.50
2022-10-01T11:40:57.000Z,0.80
2022-10-01T11:50:57.000Z,0.80
2022-10-01T12:00:57.000Z,0.70
2022-10-01T12:10:57.000Z,0.70
2022-10-01T12:20:56.000Z,0.60
2022-10-01T12:30:56.000Z,0.60
2022-10-01T12:40:56.000Z,0.50
2022-10-01T13:00:56.000Z,0.70
2022-10-01T13:10:56.000Z,0.80
2022-10-01T13:20:56.000Z,0.60
2022-10-01T13:30:56.000Z,0.50
2022-10-01T13:40:55.000Z,0.40
2022-10-01T13:50:55.000Z,0.40
2022-10-01T14:00:55.000Z,0.50
2022-10-01T14:10:55.000Z,0.50
2022-10-01T14:30:55.000Z,0.50
2022-10-01T14:40:55.000Z,0.40
2022-10-01T14:50:54.000Z,0.80
2022-10-01T15:00:54.000Z,0.50
2022-10-01T15:10:54.000Z,0.60
2022-10-01T15:20:54.000Z,0.40
2022-10-01T15:30:54.000Z,0.50
2022-10-01T15:30:54.000Z,0.50
2022-10-01T15:40:54.000Z,0.60
2022-10-01T16:00:54.000Z,0.50
2022-10-01T16:10:53.000Z,0.80
2022-10-01T16:20:53.000Z,0.70
2022-10-01T16:30:53.000Z,0.70
2022-10-01T16:40:53.000Z,0.40
2022-10-01T16:50:53.000Z,0.80
2022-10-01T17:00:53.000Z,1.10
2022-10-01T17:10:53.000Z,1.30
2022-10-01T17:30:52.000Z,0.40
2022-10-01T17:40:52.000Z,0.90
2022-10-01T17:50:52.000Z,0.60
2022-10-01T18:00:52.000Z,0.80
2022-10-01T18:10:52.000Z,0.70
2022-10-01T18:20:52.000Z,0.70
2022-10-01T18:30:51.000Z,1.20
2022-10-01T18:40:51.000Z,0.50
2022-10-01T19:00:51.000Z,0.70
2022-10-01T19:10:51.000Z,0.90
2022-10-01T19:20:51.000Z,0.80
2022-10-01T19:30:51.000Z,0.60
2022-10-01T19:40:50.000Z,0.70
2022-10-01T19:50:50.000Z,0.90
2022-10-01T20:00:50.000Z,0.70
2022-10-01T20:10:50.000Z,0.40
2022-10-01T20:30:50.000Z,0.80
2022-10-01T20:40:50.000Z,0.40
2022-10-01T20:50:50.000Z,0.70
2022-10-01T21:00:49.000Z,1.20
2022-10-01T21:10:49.000Z,0.70
2022-10-01T21:20:49.000Z,0.50
2022-10-01T21:30:49.000Z,0.50
2022-10-01T21:40:49.000Z,0.60
2022-10-01T22:00:49.000Z,0.90
2022-10-01T22:10:48.000Z,0.90
2022-10-01T22:20:48.000Z,1.00
2022-10-01T22:46:05.000Z,1.30
2022-10-01T22:46:05.000Z,1.20
2022-10-01T22:56:05.000Z,1.90
2022-10-01T23:06:05.000Z,1.10
2022-10-01T23:16:05.000Z,1.90
2022-10-01T23:26:05.000Z,1.10
2022-10-01T23:36:05.000Z,0.60
2022-10-01T23:46:05.000Z,1.10
2022-10-01T23:56:04.000Z,1.70
